createdAt,value
2023-04-10T00:00:10.062Z,12.00
2023-04-10T00:02:38.769Z,11.97
2023-04-10T00:05:09.029Z,12.27
2023-04-10T00:07:37.538Z,12.43
2023-04-10T00:10:06.944Z,12.40
2023-04-10T00:12:38.877Z,14.37
2023-04-10T00:15:08.727Z,13.20
2023-04-10T00:17:37.093Z,11.80
2023-04-10T00:20:06.860Z,13.50
2023-04-10T00:22:35.396Z,12.30
2023-04-10T00:25:04.095Z,14.17
2023-04-10T00:27:32.467Z,11.20
2023-04-10T00:30:02.646Z,12.17
2023-04-10T00:32:31.084Z,12.60
2023-04-10T00:34:59.380Z,11.50
2023-04-10T00:37:27.769Z,12.77
2023-04-10T00:39:56.261Z,11.63
2023-04-10T00:42:24.645Z,12.57
2023-04-10T00:44:53.085Z,12.00
2023-04-10T00:47:23.137Z,11.37
2023-04-10T00:49:51.788Z,11.67
2023-04-10T00:52:20.275Z,11.47
2023-04-10T00:54:48.714Z,12.20
2023-04-10T00:57:17.122Z,12.97
2023-04-10T00:59:45.731Z,12.97
2023-04-10T01:02:14.112Z,13.47
2023-04-10T01:04:43.940Z,14.30
2023-04-10T01:07:23.107Z,11.77
2023-04-10T01:10:00.841Z,13.90
2023-04-10T01:12:45.702Z,13.53
2023-04-10T01:15:19.597Z,12.93
2023-04-10T01:17:52.723Z,12.73
2023-04-10T01:20:25.009Z,12.70
2023-04-10T01:23:21.398Z,13.33
2023-04-10T01:25:53.383Z,12.60
2023-04-10T01:28:48.184Z,12.90
2023-04-10T01:31:22.501Z,12.17
2023-04-10T01:33:56.028Z,12.73
2023-04-10T01:36:29.548Z,12.67
2023-04-10T01:38:59.623Z,13.33
2023-04-10T01:41:29.188Z,14.47
2023-04-10T01:44:00.428Z,12.77
2023-04-10T01:46:30.892Z,12.47
2023-04-10T01:49:01.985Z,13.10
2023-04-10T01:51:33.834Z,12.83
2023-04-10T01:54:06.909Z,11.67
2023-04-10T01:56:36.033Z,13.57
2023-04-10T01:59:06.642Z,11.73
2023-04-10T02:01:35.107Z,11.80
2023-04-10T02:04:04.403Z,11.93
2023-04-10T02:06:51.910Z,12.10
2023-04-10T02:09:27.411Z,13.63
2023-04-10T02:12:03.189Z,11.73
2023-04-10T02:14:35.496Z,12.17
2023-04-10T02:17:04.963Z,10.93
2023-04-10T02:19:34.237Z,12.60
2023-04-10T02:22:03.100Z,13.50
2023-04-10T02:24:31.850Z,14.33
2023-04-10T02:27:01.584Z,11.47
2023-04-10T02:29:29.908Z,13.90
2023-04-10T02:31:59.651Z,14.57
2023-04-10T02:34:27.944Z,13.20
2023-04-10T02:36:56.403Z,13.30
2023-04-10T02:39:24.986Z,13.90
2023-04-10T02:41:53.886Z,12.60
2023-04-10T02:44:22.244Z,10.70
2023-04-10T02:46:50.802Z,11.50
2023-04-10T02:49:20.865Z,11.80
2023-04-10T02:51:49.267Z,12.70
2023-04-10T02:54:17.676Z,12.70
2023-04-10T02:56:46.365Z,12.10
2023-04-10T02:59:14.738Z,13.83
2023-04-10T03:01:43.422Z,10.47
2023-04-10T03:04:11.980Z,11.27
2023-04-10T03:06:43.599Z,11.67
2023-04-10T03:09:12.102Z,11.70
2023-04-10T03:11:40.445Z,13.77
2023-04-10T03:14:09.761Z,14.30
2023-04-10T03:16:38.288Z,11.50
2023-04-10T03:19:06.763Z,12.47
2023-04-10T03:21:35.227Z,13.33
2023-04-10T03:24:07.296Z,12.37
2023-04-10T03:26:35.827Z,11.73
2023-04-10T03:29:04.629Z,12.07
2023-04-10T03:31:33.007Z,12.37
2023-04-10T03:34:02.536Z,11.73
2023-04-10T03:36:30.944Z,10.10
2023-04-10T03:38:59.396Z,12.63
2023-04-10T03:41:29.104Z,12.50
2023-04-10T03:43:57.570Z,11.47
2023-04-10T03:46:26.469Z,13.27
2023-04-10T03:48:55.311Z,12.03
2023-04-10T03:51:24.707Z,11.83
2023-04-10T03:53:53.743Z,13.70
2023-04-10T03:56:22.655Z,14.10
2023-04-10T03:58:52.499Z,11.40
2023-04-10T04:01:22.159Z,11.50
2023-04-10T04:04:05.353Z,12.30
2023-04-10T04:06:51.643Z,13.13
2023-04-10T04:09:48.983Z,13.37
2023-04-10T04:12:26.434Z,11.57
2023-04-10T04:15:11.539Z,11.53
2023-04-10T04:18:02.865Z,12.47
2023-04-10T04:20:37.767Z,13.40
2023-04-10T04:23:21.175Z,11.60
2023-04-10T04:26:15.601Z,16.07
2023-04-10T04:29:02.376Z,13.30
2023-04-10T04:31:55.553Z,13.73
2023-04-10T04:34:55.612Z,12.03
2023-04-10T04:37:47.191Z,13.20
2023-04-10T04:40:33.866Z,12.70
2023-04-10T04:43:12.269Z,11.63
2023-04-10T04:46:00.940Z,11.13
2023-04-10T04:48:50.644Z,12.33
2023-04-10T04:51:32.492Z,15.17
2023-04-10T04:54:06.546Z,12.53
2023-04-10T04:56:50.085Z,13.13
2023-04-10T04:59:50.455Z,11.20
2023-04-10T05:02:38.945Z,12.23
2023-04-10T05:05:28.835Z,12.33
2023-04-10T05:08:10.731Z,12.10
2023-04-10T05:11:01.932Z,10.73
2023-04-10T05:13:42.339Z,14.23
2023-04-10T05:16:18.538Z,11.13
2023-04-10T05:19:16.346Z,11.17
2023-04-10T05:22:06.279Z,13.33
2023-04-10T05:24:55.433Z,12.90
2023-04-10T05:27:29.577Z,10.20
2023-04-10T05:30:15.394Z,12.10
2023-04-10T05:33:06.724Z,13.30
2023-04-10T05:35:50.384Z,11.67
2023-04-10T05:38:37.648Z,12.63
2023-04-10T05:41:29.544Z,12.50
2023-04-10T05:44:18.141Z,13.43
2023-04-10T05:47:19.529Z,11.57
2023-04-10T05:49:57.617Z,12.77
2023-04-10T05:52:48.636Z,11.20
2023-04-10T05:55:36.308Z,12.07
2023-04-10T05:58:36.679Z,11.97
2023-04-10T06:01:27.664Z,11.00
2023-04-10T06:04:00.678Z,13.20
2023-04-10T06:06:29.772Z,13.40
2023-04-10T06:08:58.249Z,14.43
2023-04-10T06:11:28.023Z,12.63
2023-04-10T06:13:58.190Z,11.93
2023-04-10T06:16:34.072Z,14.57
2023-04-10T06:19:02.772Z,12.63
2023-04-10T06:21:31.799Z,13.30
2023-04-10T06:24:00.185Z,14.87
2023-04-10T06:26:29.933Z,12.57
2023-04-10T06:28:58.606Z,13.50
2023-04-10T06:31:27.380Z,13.10
2023-04-10T06:33:56.537Z,12.63
2023-04-10T06:36:26.091Z,12.40
2023-04-10T06:39:02.736Z,14.23
2023-04-10T06:41:32.605Z,13.20
2023-04-10T06:44:13.189Z,12.20
2023-04-10T06:46:41.676Z,14.00
2023-04-10T06:49:10.069Z,12.80
2023-04-10T06:51:38.409Z,14.13
2023-04-10T06:54:06.760Z,16.90
2023-04-10T06:56:36.506Z,12.23
2023-04-10T06:59:04.853Z,12.37
2023-04-10T07:01:33.233Z,13.43
2023-04-10T07:04:01.565Z,12.30
2023-04-10T07:06:29.915Z,13.23
2023-04-10T07:08:58.224Z,14.10
2023-04-10T07:11:26.542Z,13.10
2023-04-10T07:13:58.453Z,13.03
2023-04-10T07:16:27.607Z,12.03
2023-04-10T07:18:56.537Z,13.60
2023-04-10T07:21:25.199Z,12.57
2023-04-10T07:23:53.533Z,15.60
2023-04-10T07:26:21.906Z,13.50
2023-04-10T07:28:50.235Z,13.43
2023-04-10T07:31:20.289Z,13.33
2023-04-10T07:33:48.791Z,14.03
2023-04-10T07:36:17.183Z,13.63
2023-04-10T07:38:45.647Z,14.20
2023-04-10T07:41:14.161Z,13.90
2023-04-10T07:43:42.551Z,12.70
2023-04-10T07:46:11.233Z,13.40
2023-04-10T07:48:41.077Z,13.60
2023-04-10T07:51:10.266Z,12.37
2023-04-10T07:53:39.887Z,13.30
2023-04-10T07:56:15.718Z,12.60
2023-04-10T07:58:44.229Z,13.30
2023-04-10T08:01:12.745Z,14.33
2023-04-10T08:03:44.343Z,12.40
2023-04-10T08:06:13.609Z,12.50
2023-04-10T08:08:43.583Z,13.43
2023-04-10T08:11:25.771Z,12.17
2023-04-10T08:13:54.765Z,11.77
2023-04-10T08:16:26.228Z,14.13
2023-04-10T08:18:57.664Z,13.50
2023-04-10T08:21:27.290Z,13.37
2023-04-10T08:23:57.480Z,10.60
2023-04-10T08:26:28.064Z,10.70
2023-04-10T08:28:59.891Z,11.60
2023-04-10T08:31:30.315Z,10.87
2023-04-10T08:34:00.526Z,10.30
2023-04-10T08:36:29.376Z,9.60
2023-04-10T08:38:57.717Z,11.50
2023-04-10T08:41:26.538Z,10.73
2023-04-10T08:43:55.355Z,10.23
2023-04-10T08:46:26.152Z,10.57
2023-04-10T08:49:02.704Z,10.73
2023-04-10T08:51:38.341Z,10.53
2023-04-10T08:54:09.496Z,10.13
2023-04-10T08:56:40.899Z,11.83
2023-04-10T08:59:09.919Z,10.10
2023-04-10T09:01:38.653Z,9.93
2023-04-10T09:04:08.838Z,10.53
2023-04-10T09:06:37.271Z,11.10
2023-04-10T09:09:07.212Z,9.00
2023-04-10T09:12:00.910Z,8.90
2023-04-10T09:14:31.920Z,9.13
2023-04-10T09:17:20.718Z,9.23
2023-04-10T09:19:53.441Z,9.60
2023-04-10T09:22:33.061Z,7.93
2023-04-10T09:25:02.805Z,7.80
2023-04-10T09:27:33.718Z,8.93
2023-04-10T09:30:02.512Z,9.40
2023-04-10T09:32:42.742Z,16.27
2023-04-10T09:35:14.822Z,8.87
2023-04-10T09:37:46.762Z,71.27
2023-04-10T09:40:24.479Z,8.17
2023-04-10T09:42:53.744Z,8.23
2023-04-10T09:45:23.027Z,8.50
2023-04-10T09:48:06.108Z,8.57
2023-04-10T09:50:40.984Z,8.43
2023-04-10T09:53:10.357Z,8.30
2023-04-10T09:55:38.916Z,8.10
2023-04-10T09:58:07.516Z,6.80
2023-04-10T10:00:43.088Z,7.37
2023-04-10T10:03:14.048Z,7.83
2023-04-10T10:05:46.990Z,7.13
2023-04-10T10:08:16.578Z,7.67
2023-04-10T10:10:48.418Z,9.00
2023-04-10T10:13:25.744Z,7.83
2023-04-10T10:16:05.894Z,7.87
2023-04-10T10:18:41.442Z,7.87
2023-04-10T10:21:11.695Z,8.03
2023-04-10T10:23:40.677Z,7.63
2023-04-10T10:26:11.409Z,7.23
2023-04-10T10:28:41.927Z,7.23
2023-04-10T10:31:11.699Z,8.30
2023-04-10T10:33:40.274Z,7.20
2023-04-10T10:36:11.458Z,7.87
2023-04-10T10:38:47.757Z,7.93
2023-04-10T10:41:24.947Z,7.80
2023-04-10T10:44:02.693Z,7.63
2023-04-10T10:46:39.521Z,7.40
2023-04-10T10:49:07.892Z,6.90
2023-04-10T10:51:49.229Z,7.20
2023-04-10T10:54:34.008Z,7.20
2023-04-10T10:57:06.463Z,6.83
2023-04-10T10:59:57.793Z,7.10
2023-04-10T11:02:26.823Z,6.30
2023-04-10T11:04:55.534Z,5.90
2023-04-10T11:08:09.229Z,6.07
2023-04-10T11:11:03.034Z,5.73
2023-04-10T11:13:31.502Z,6.43
2023-04-10T11:16:02.124Z,7.13
2023-04-10T11:19:13.977Z,6.00
2023-04-10T11:22:05.720Z,6.47
2023-04-10T11:25:08.623Z,6.17
2023-04-10T11:27:49.667Z,6.37
2023-04-10T11:30:36.270Z,5.30
2023-04-10T11:33:06.721Z,6.20
2023-04-10T11:35:35.572Z,5.30
2023-04-10T11:38:12.738Z,6.43
2023-04-10T11:41:04.600Z,6.47
2023-04-10T11:43:33.773Z,5.30
2023-04-10T11:46:04.656Z,4.90
2023-04-10T11:48:33.428Z,4.50
2023-04-10T11:51:09.378Z,4.67
2023-04-10T11:53:38.560Z,5.17
2023-04-10T11:56:18.199Z,5.17
2023-04-10T11:58:46.561Z,4.87
2023-04-10T12:01:15.680Z,5.50
2023-04-10T12:03:46.132Z,4.97
2023-04-10T12:06:16.675Z,4.57
2023-04-10T12:08:47.739Z,4.70
2023-04-10T12:11:21.279Z,3.47
2023-04-10T12:13:49.997Z,4.63
2023-04-10T12:16:18.651Z,3.60
2023-04-10T12:18:47.523Z,3.30
2023-04-10T12:21:16.225Z,3.80
2023-04-10T12:23:44.582Z,3.60
2023-04-10T12:26:16.903Z,3.17
2023-04-10T12:28:57.555Z,3.13
2023-04-10T12:31:30.102Z,2.93
2023-04-10T12:33:58.787Z,2.97
2023-04-10T12:36:30.226Z,3.00
2023-04-10T12:38:59.761Z,2.73
2023-04-10T12:41:32.101Z,3.20
2023-04-10T12:44:12.497Z,3.23
2023-04-10T12:46:42.111Z,3.73
2023-04-10T12:49:12.867Z,3.40
2023-04-10T12:51:46.417Z,2.90
2023-04-10T12:54:30.067Z,10.03
2023-04-10T12:57:00.571Z,8.70
2023-04-10T12:59:30.891Z,5.33
2023-04-10T13:01:59.541Z,3.30
2023-04-10T13:04:28.408Z,3.10
2023-04-10T13:06:57.164Z,3.27
2023-04-10T13:09:25.575Z,3.10
2023-04-10T13:11:53.904Z,3.80
2023-04-10T13:14:23.958Z,3.00
2023-04-10T13:16:52.310Z,2.77
2023-04-10T13:19:20.681Z,2.80
2023-04-10T13:21:51.986Z,2.93
2023-04-10T13:24:20.387Z,2.70
2023-04-10T13:26:48.727Z,3.20
2023-04-10T13:29:17.157Z,3.63
2023-04-10T13:31:46.962Z,2.97
2023-04-10T13:34:15.431Z,3.60
2023-04-10T13:36:44.236Z,3.00
2023-04-10T13:39:12.734Z,3.47
2023-04-10T13:41:41.333Z,3.37
2023-04-10T13:44:09.858Z,3.50
2023-04-10T13:46:38.250Z,3.33
2023-04-10T13:49:08.037Z,3.57
2023-04-10T13:51:36.444Z,2.70
2023-04-10T13:54:05.198Z,2.83
2023-04-10T13:56:33.472Z,3.43
2023-04-10T13:59:01.861Z,2.70
2023-04-10T14:01:30.346Z,3.67
2023-04-10T14:03:58.940Z,5.27
2023-04-10T14:06:29.017Z,2.50
2023-04-10T14:08:57.356Z,3.50
2023-04-10T14:11:26.720Z,2.97
2023-04-10T14:13:55.391Z,3.20
2023-04-10T14:16:23.832Z,2.73
2023-04-10T14:18:52.259Z,2.57
2023-04-10T14:21:20.899Z,2.70
2023-04-10T14:23:50.688Z,2.77
2023-04-10T14:26:19.103Z,2.40
2023-04-10T14:28:47.713Z,3.37
2023-04-10T14:31:16.229Z,3.43
2023-04-10T14:33:44.737Z,3.37
2023-04-10T14:36:13.159Z,2.90
2023-04-10T14:38:41.604Z,3.27
2023-04-10T14:41:11.649Z,3.00
2023-04-10T14:43:40.048Z,2.70
2023-04-10T14:46:08.760Z,3.03
2023-04-10T14:48:37.193Z,3.10
2023-04-10T14:51:12.657Z,2.67
2023-04-10T14:53:42.326Z,2.97
2023-04-10T14:56:15.931Z,3.00
2023-04-10T14:58:44.876Z,2.97
2023-04-10T15:01:13.909Z,3.30
2023-04-10T15:03:42.329Z,3.30
2023-04-10T15:06:10.937Z,3.30
2023-04-10T15:08:39.336Z,4.73
2023-04-10T15:11:07.989Z,3.53
2023-04-10T15:13:39.494Z,2.77
2023-04-10T15:16:09.174Z,2.83
2023-04-10T15:18:37.584Z,4.43
2023-04-10T15:21:07.121Z,4.30
2023-04-10T15:23:35.548Z,2.70
2023-04-10T15:26:03.893Z,2.50
2023-04-10T15:28:32.215Z,2.33
2023-04-10T15:31:01.957Z,2.00
2023-04-10T15:33:30.369Z,1.97
2023-04-10T15:35:58.770Z,2.90
2023-04-10T15:38:28.765Z,2.70
2023-04-10T15:40:57.435Z,2.40
2023-04-10T15:43:25.732Z,3.10
2023-04-10T15:45:54.103Z,2.20
2023-04-10T15:48:24.718Z,1.90
2023-04-10T15:50:53.122Z,2.27
2023-04-10T15:53:21.518Z,2.50
2023-04-10T15:55:49.862Z,2.47
2023-04-10T15:58:18.234Z,2.13
2023-04-10T16:00:46.654Z,2.40
2023-04-10T16:03:15.370Z,2.23
2023-04-10T16:05:45.309Z,2.93
2023-04-10T16:08:13.681Z,2.10
2023-04-10T16:10:42.021Z,1.80
2023-04-10T16:13:10.365Z,2.03
2023-04-10T16:15:40.587Z,2.00
2023-04-10T16:18:09.412Z,2.50
2023-04-10T16:20:38.506Z,2.93
2023-04-10T16:23:08.449Z,2.20
2023-04-10T16:25:36.868Z,1.93
2023-04-10T16:28:07.885Z,4.87
2023-04-10T16:30:36.605Z,4.03
2023-04-10T16:33:05.206Z,5.67
2023-04-10T16:35:33.677Z,7.03
2023-04-10T16:38:02.110Z,2.60
2023-04-10T16:40:33.225Z,2.73
2023-04-10T16:43:01.990Z,2.10
2023-04-10T16:45:30.751Z,3.17
2023-04-10T16:47:59.187Z,2.40
2023-04-10T16:50:27.607Z,2.80
2023-04-10T16:52:56.005Z,3.13
2023-04-10T16:55:24.333Z,3.00
2023-04-10T16:57:54.051Z,3.30
2023-04-10T17:00:22.813Z,3.00
2023-04-10T17:02:51.134Z,2.90
2023-04-10T17:05:19.640Z,3.37
2023-04-10T17:07:48.157Z,3.20
2023-04-10T17:10:16.777Z,3.50
2023-04-10T17:12:45.870Z,3.13
2023-04-10T17:15:15.874Z,4.80
2023-04-10T17:17:44.307Z,2.90
2023-04-10T17:20:17.206Z,2.63
2023-04-10T17:22:46.163Z,3.30
2023-04-10T17:25:14.779Z,2.60
2023-04-10T17:27:43.222Z,3.17
2023-04-10T17:30:15.381Z,2.70
2023-04-10T17:32:43.833Z,2.90
2023-04-10T17:35:12.261Z,2.90
2023-04-10T17:37:40.634Z,2.97
2023-04-10T17:40:12.055Z,9.30
2023-04-10T17:42:40.427Z,7.10
2023-04-10T17:45:09.776Z,4.97
2023-04-10T17:47:40.079Z,3.77
2023-04-10T17:50:10.647Z,5.93
2023-04-10T17:52:39.130Z,5.93
2023-04-10T17:55:08.808Z,4.50
2023-04-10T17:57:37.133Z,3.30
2023-04-10T18:00:09.794Z,3.60
2023-04-10T18:02:39.876Z,3.17
2023-04-10T18:05:09.198Z,3.90
2023-04-10T18:07:38.005Z,6.97
2023-04-10T18:10:09.675Z,4.33
2023-04-10T18:12:39.339Z,5.37
2023-04-10T18:15:09.542Z,3.93
2023-04-10T18:17:39.580Z,5.33
2023-04-10T18:20:08.720Z,3.70
2023-04-10T18:22:37.113Z,3.10
2023-04-10T18:25:06.405Z,3.53
2023-04-10T18:27:35.975Z,3.60
2023-04-10T18:30:04.599Z,3.57
2023-04-10T18:32:33.098Z,3.57
2023-04-10T18:35:03.671Z,3.87
2023-04-10T18:37:32.361Z,3.50
2023-04-10T18:40:06.392Z,4.87
2023-04-10T18:42:42.089Z,4.87
2023-04-10T18:45:13.055Z,5.40
2023-04-10T18:47:41.577Z,3.67
2023-04-10T18:50:12.188Z,4.83
2023-04-10T18:52:40.612Z,4.80
2023-04-10T18:55:09.934Z,3.47
2023-04-10T18:57:38.297Z,5.33
2023-04-10T19:00:08.372Z,4.43
2023-04-10T19:02:37.043Z,5.00
2023-04-10T19:05:06.167Z,3.27
2023-04-10T19:07:35.964Z,3.60
2023-04-10T19:10:04.416Z,4.63
2023-04-10T19:12:35.096Z,3.20
2023-04-10T19:15:05.267Z,3.20
2023-04-10T19:17:33.695Z,3.77
2023-04-10T19:20:02.634Z,3.10
2023-04-10T19:22:32.867Z,3.53
2023-04-10T19:25:02.626Z,4.03
2023-04-10T19:27:31.138Z,3.43
2023-04-10T19:29:59.496Z,3.40
2023-04-10T19:32:27.816Z,3.67
2023-04-10T19:34:56.418Z,3.70
2023-04-10T19:37:24.712Z,3.73
2023-04-10T19:39:53.092Z,3.57
2023-04-10T19:42:22.844Z,2.87
2023-04-10T19:44:51.173Z,2.97
2023-04-10T19:47:19.510Z,3.37
2023-04-10T19:49:47.882Z,2.60
2023-04-10T19:52:16.304Z,2.73
2023-04-10T19:54:44.651Z,2.70
2023-04-10T19:57:13.036Z,3.50
2023-04-10T19:59:42.791Z,3.40
2023-04-10T20:02:12.270Z,3.20
2023-04-10T20:04:40.702Z,3.43
2023-04-10T20:07:10.827Z,3.70
2023-04-10T20:09:39.145Z,3.70
2023-04-10T20:12:08.534Z,9.23
2023-04-10T20:14:36.923Z,3.63
2023-04-10T20:17:07.663Z,3.67
2023-04-10T20:19:36.007Z,3.63
2023-04-10T20:22:04.495Z,3.57
2023-04-10T20:24:32.876Z,3.07
2023-04-10T20:27:01.606Z,3.23
2023-04-10T20:29:29.948Z,4.03
2023-04-10T20:31:58.435Z,3.37
2023-04-10T20:34:28.329Z,3.53
2023-04-10T20:36:56.732Z,3.17
2023-04-10T20:39:25.448Z,3.50
2023-04-10T20:41:54.266Z,3.93
2023-04-10T20:44:22.650Z,3.87
2023-04-10T20:46:51.313Z,3.50
2023-04-10T20:49:19.645Z,3.33
2023-04-10T20:51:49.504Z,2.73
2023-04-10T20:54:18.991Z,3.67
2023-04-10T20:56:47.767Z,3.13
2023-04-10T20:59:16.204Z,3.10
2023-04-10T21:01:44.631Z,3.10
2023-04-10T21:04:13.166Z,3.10
2023-04-10T21:06:41.508Z,4.13
2023-04-10T21:09:11.231Z,3.80
2023-04-10T21:11:39.542Z,3.23
2023-04-10T21:14:08.010Z,3.40
2023-04-10T21:16:41.169Z,3.17
2023-04-10T21:19:09.711Z,2.60
2023-04-10T21:21:38.324Z,3.10
2023-04-10T21:24:07.637Z,3.20
2023-04-10T21:26:37.341Z,4.30
2023-04-10T21:29:05.754Z,3.20
2023-04-10T21:31:34.136Z,3.17
2023-04-10T21:34:02.478Z,3.20
2023-04-10T21:36:31.310Z,3.80
2023-04-10T21:38:59.804Z,2.80
2023-04-10T21:41:28.235Z,4.80
2023-04-10T21:44:00.318Z,4.10
2023-04-10T21:46:28.902Z,2.30
2023-04-10T21:48:57.352Z,3.73
2023-04-10T21:51:26.915Z,3.27
2023-04-10T21:53:55.449Z,3.00
2023-04-10T21:56:23.778Z,3.30
2023-04-10T21:58:53.021Z,2.80
2023-04-10T22:01:23.214Z,2.50
2023-04-10T22:03:51.944Z,4.37
2023-04-10T22:06:20.423Z,2.67
2023-04-10T22:08:48.694Z,3.10
2023-04-10T22:11:17.109Z,2.60
2023-04-10T22:13:45.460Z,2.60
2023-04-10T22:16:13.784Z,3.20
2023-04-10T22:18:43.482Z,4.20
2023-04-10T22:21:13.350Z,3.33
2023-04-10T22:23:41.652Z,2.40
2023-04-10T22:26:09.950Z,3.80
2023-04-10T22:28:38.203Z,3.20
2023-04-10T22:31:06.813Z,3.40
2023-04-10T22:33:35.168Z,3.20
2023-04-10T22:36:05.705Z,4.10
2023-04-10T22:38:34.089Z,3.03
2023-04-10T22:41:02.460Z,2.50
2023-04-10T22:43:30.908Z,3.93
2023-04-10T22:45:59.181Z,3.83
2023-04-10T22:48:27.725Z,3.10
2023-04-10T22:50:56.034Z,3.20
2023-04-10T22:53:25.744Z,5.00
2023-04-10T22:55:54.140Z,3.30
2023-04-10T22:58:22.571Z,3.43
2023-04-10T23:00:50.943Z,4.47
2023-04-10T23:03:19.283Z,3.30
2023-04-10T23:05:48.008Z,3.00
2023-04-10T23:08:16.377Z,4.87
2023-04-10T23:10:46.056Z,3.03
2023-04-10T23:13:14.451Z,3.10
2023-04-10T23:15:49.536Z,12.20
2023-04-10T23:18:18.356Z,3.40
2023-04-10T23:20:47.401Z,5.03
2023-04-10T23:23:15.987Z,2.90
2023-04-10T23:25:45.784Z,3.40
2023-04-10T23:28:14.323Z,4.67
2023-04-10T23:30:43.171Z,3.13
2023-04-10T23:33:11.512Z,6.00
2023-04-10T23:35:39.888Z,4.10
2023-04-10T23:38:08.397Z,3.67
2023-04-10T23:40:36.763Z,3.13
2023-04-10T23:43:06.704Z,2.70
2023-04-10T23:45:35.106Z,3.47
2023-04-10T23:48:03.466Z,3.57
2023-04-10T23:50:31.903Z,4.00
2023-04-10T23:53:00.713Z,4.27
2023-04-10T23:55:29.342Z,4.30
2023-04-10T23:57:57.705Z,3.00
